sensor_id;sensor_type;location;lat;lon;timestamp;P1;durP1;ratioP1;P2;durP2;ratioP2
36585;SDS011;22591;48.314;11.562;2024-01-10T00:00:23;41.50;;;24.10;;
36585;SDS011;22591;48.314;11.562;2024-01-10T00:02:50;35.87;;;23.87;;
36585;SDS011;22591;48.314;11.562;2024-01-10T00:05:16;42.00;;;23.87;;
36585;SDS011;22591;48.314;11.562;2024-01-10T00:07:43;37.30;;;23.57;;
36585;SDS011;22591;48.314;11.562;2024-01-10T00:10:10;45.27;;;24.97;;
36585;SDS011;22591;48.314;11.562;2024-01-10T00:12:38;39.47;;;24.77;;
36585;SDS011;22591;48.314;11.562;2024-01-10T00:15:05;44.57;;;22.73;;
36585;SDS011;22591;48.314;11.562;2024-01-10T00:17:32;36.23;;;22.83;;
36585;SDS011;22591;48.314;11.562;2024-01-10T00:19:57;39.03;;;23.30;;
36585;SDS011;22591;48.314;11.562;2024-01-10T00:22:23;36.87;;;23.70;;
36585;SDS011;22591;48.314;11.562;2024-01-10T00:24:50;36.07;;;23.70;;
36585;SDS011;22591;48.314;11.562;2024-01-10T00:27:15;37.47;;;23.70;;
36585;SDS011;22591;48.314;11.562;2024-01-10T00:29:42;36.17;;;23.07;;
36585;SDS011;22591;48.314;11.562;2024-01-10T00:32:09;41.30;;;25.63;;
36585;SDS011;22591;48.314;11.562;2024-01-10T00:34:36;40.93;;;25.43;;
36585;SDS011;22591;48.314;11.562;2024-01-10T00:37:02;52.70;;;27.23;;
36585;SDS011;22591;48.314;11.562;2024-01-10T00:39:29;46.27;;;26.60;;
36585;SDS011;22591;48.314;11.562;2024-01-10T00:41:55;42.97;;;25.87;;
36585;SDS011;22591;48.314;11.562;2024-01-10T00:44:20;42.77;;;28.10;;
36585;SDS011;22591;48.314;11.562;2024-01-10T00:46:47;43.60;;;27.50;;
36585;SDS011;22591;48.314;11.562;2024-01-10T00:49:14;45.50;;;27.40;;
36585;SDS011;22591;48.314;11.562;2024-01-10T00:51:41;46.33;;;28.53;;
36585;SDS011;22591;48.314;11.562;2024-01-10T00:54:07;48.63;;;28.70;;
36585;SDS011;22591;48.314;11.562;2024-01-10T00:56:33;45.03;;;29.30;;
36585;SDS011;22591;48.314;11.562;2024-01-10T00:58:59;46.13;;;28.33;;
36585;SDS011;22591;48.314;11.562;2024-01-10T01:01:25;45.33;;;27.53;;
36585;SDS011;22591;48.314;11.562;2024-01-10T01:03:50;46.93;;;28.20;;
36585;SDS011;22591;48.314;11.562;2024-01-10T01:06:16;50.67;;;29.37;;
36585;SDS011;22591;48.314;11.562;2024-01-10T01:08:41;46.10;;;29.50;;
36585;SDS011;22591;48.314;11.562;2024-01-10T01:11:07;47.13;;;30.87;;
36585;SDS011;22591;48.314;11.562;2024-01-10T01:13:32;48.70;;;30.03;;
36585;SDS011;22591;48.314;11.562;2024-01-10T01:15:59;45.10;;;28.87;;
36585;SDS011;22591;48.314;11.562;2024-01-10T01:18:25;44.50;;;28.23;;
36585;SDS011;22591;48.314;11.562;2024-01-10T01:20:52;50.77;;;29.83;;
36585;SDS011;22591;48.314;11.562;2024-01-10T01:23:17;54.50;;;30.07;;
36585;SDS011;22591;48.314;11.562;2024-01-10T01:25:45;46.80;;;28.27;;
36585;SDS011;22591;48.314;11.562;2024-01-10T01:28:10;45.77;;;27.27;;
36585;SDS011;22591;48.314;11.562;2024-01-10T01:30:37;49.20;;;28.33;;
36585;SDS011;22591;48.314;11.562;2024-01-10T01:33:04;42.30;;;27.83;;
36585;SDS011;22591;48.314;11.562;2024-01-10T01:35:30;42.80;;;27.67;;
36585;SDS011;22591;48.314;11.562;2024-01-10T01:37:57;41.60;;;27.53;;
36585;SDS011;22591;48.314;11.562;2024-01-10T01:40:22;44.70;;;27.17;;
36585;SDS011;22591;48.314;11.562;2024-01-10T01:42:48;42.37;;;27.77;;
36585;SDS011;22591;48.314;11.562;2024-01-10T01:45:13;45.77;;;28.10;;
36585;SDS011;22591;48.314;11.562;2024-01-10T01:47:39;48.20;;;28.57;;
36585;SDS011;22591;48.314;11.562;2024-01-10T01:50:06;47.73;;;28.77;;
36585;SDS011;22591;48.314;11.562;2024-01-10T01:52:34;46.67;;;29.27;;
36585;SDS011;22591;48.314;11.562;2024-01-10T01:55:02;43.60;;;29.13;;
36585;SDS011;22591;48.314;11.562;2024-01-10T01:57:28;44.43;;;28.77;;
36585;SDS011;22591;48.314;11.562;2024-01-10T01:59:55;50.67;;;31.23;;
36585;SDS011;22591;48.314;11.562;2024-01-10T02:02:22;54.17;;;31.33;;
36585;SDS011;22591;48.314;11.562;2024-01-10T02:04:50;47.23;;;30.60;;
36585;SDS011;22591;48.314;11.562;2024-01-10T02:07:16;54.80;;;31.77;;
36585;SDS011;22591;48.314;11.562;2024-01-10T02:09:44;56.03;;;31.40;;
36585;SDS011;22591;48.314;11.562;2024-01-10T02:12:12;54.57;;;32.77;;
36585;SDS011;22591;48.314;11.562;2024-01-10T02:14:39;49.53;;;30.77;;
36585;SDS011;22591;48.314;11.562;2024-01-10T02:17:04;60.43;;;32.60;;
36585;SDS011;22591;48.314;11.562;2024-01-10T02:19:31;49.77;;;30.87;;
36585;SDS011;22591;48.314;11.562;2024-01-10T02:22:00;54.47;;;30.90;;
36585;SDS011;22591;48.314;11.562;2024-01-10T02:24:28;55.50;;;34.30;;
36585;SDS011;22591;48.314;11.562;2024-01-10T02:26:56;51.60;;;30.70;;
36585;SDS011;22591;48.314;11.562;2024-01-10T02:29:23;51.53;;;30.93;;
36585;SDS011;22591;48.314;11.562;2024-01-10T02:31:51;52.63;;;32.00;;
36585;SDS011;22591;48.314;11.562;2024-01-10T02:34:16;53.40;;;32.37;;
36585;SDS011;22591;48.314;11.562;2024-01-10T02:36:43;53.73;;;32.07;;
36585;SDS011;22591;48.314;11.562;2024-01-10T02:39:09;54.57;;;32.20;;
36585;SDS011;22591;48.314;11.562;2024-01-10T02:41:36;56.87;;;33.17;;
36585;SDS011;22591;48.314;11.562;2024-01-10T02:44:01;54.30;;;32.73;;
36585;SDS011;22591;48.314;11.562;2024-01-10T02:46:28;49.10;;;32.50;;
36585;SDS011;22591;48.314;11.562;2024-01-10T02:48:55;50.30;;;31.90;;
36585;SDS011;22591;48.314;11.562;2024-01-10T02:51:21;54.33;;;32.90;;
36585;SDS011;22591;48.314;11.562;2024-01-10T02:53:47;53.93;;;34.40;;
36585;SDS011;22591;48.314;11.562;2024-01-10T02:56:14;48.43;;;31.43;;
36585;SDS011;22591;48.314;11.562;2024-01-10T02:58:41;53.43;;;31.70;;
36585;SDS011;22591;48.314;11.562;2024-01-10T03:01:06;53.17;;;32.60;;
36585;SDS011;22591;48.314;11.562;2024-01-10T03:03:34;44.97;;;30.80;;
36585;SDS011;22591;48.314;11.562;2024-01-10T03:06:01;49.67;;;31.40;;
36585;SDS011;22591;48.314;11.562;2024-01-10T03:08:26;55.03;;;32.43;;
36585;SDS011;22591;48.314;11.562;2024-01-10T03:10:53;54.33;;;33.13;;
36585;SDS011;22591;48.314;11.562;2024-01-10T03:13:18;51.07;;;31.67;;
36585;SDS011;22591;48.314;11.562;2024-01-10T03:15:44;59.23;;;32.17;;
36585;SDS011;22591;48.314;11.562;2024-01-10T03:18:09;57.67;;;34.17;;
36585;SDS011;22591;48.314;11.562;2024-01-10T03:20:35;60.70;;;33.57;;
36585;SDS011;22591;48.314;11.562;2024-01-10T03:23:00;55.63;;;31.87;;
36585;SDS011;22591;48.314;11.562;2024-01-10T03:25:26;53.07;;;32.70;;
36585;SDS011;22591;48.314;11.562;2024-01-10T03:27:52;61.03;;;34.13;;
36585;SDS011;22591;48.314;11.562;2024-01-10T03:30:17;56.67;;;33.40;;
36585;SDS011;22591;48.314;11.562;2024-01-10T03:32:43;58.23;;;33.27;;
36585;SDS011;22591;48.314;11.562;2024-01-10T03:35:08;59.50;;;35.30;;
36585;SDS011;22591;48.314;11.562;2024-01-10T03:37:34;59.30;;;35.07;;
36585;SDS011;22591;48.314;11.562;2024-01-10T03:40:00;61.57;;;34.30;;
36585;SDS011;22591;48.314;11.562;2024-01-10T03:42:25;58.70;;;35.13;;
36585;SDS011;22591;48.314;11.562;2024-01-10T03:44:51;68.67;;;37.83;;
36585;SDS011;22591;48.314;11.562;2024-01-10T03:47:16;61.70;;;35.90;;
36585;SDS011;22591;48.314;11.562;2024-01-10T03:49:42;50.80;;;32.10;;
36585;SDS011;22591;48.314;11.562;2024-01-10T03:52:08;52.90;;;31.60;;
36585;SDS011;22591;48.314;11.562;2024-01-10T03:54:33;56.67;;;33.17;;
36585;SDS011;22591;48.314;11.562;2024-01-10T03:56:59;53.87;;;32.97;;
36585;SDS011;22591;48.314;11.562;2024-01-10T03:59:24;52.57;;;32.40;;
36585;SDS011;22591;48.314;11.562;2024-01-10T04:01:50;51.93;;;32.03;;
36585;SDS011;22591;48.314;11.562;2024-01-10T04:04:15;56.37;;;34.33;;
36585;SDS011;22591;48.314;11.562;2024-01-10T04:06:41;62.33;;;35.43;;
36585;SDS011;22591;48.314;11.562;2024-01-10T04:09:06;60.33;;;36.70;;
36585;SDS011;22591;48.314;11.562;2024-01-10T04:11:33;57.13;;;35.77;;
36585;SDS011;22591;48.314;11.562;2024-01-10T04:13:58;55.00;;;34.30;;
36585;SDS011;22591;48.314;11.562;2024-01-10T04:16:25;53.63;;;33.93;;
36585;SDS011;22591;48.314;11.562;2024-01-10T04:18:52;55.43;;;34.83;;
36585;SDS011;22591;48.314;11.562;2024-01-10T04:21:18;67.50;;;36.00;;
36585;SDS011;22591;48.314;11.562;2024-01-10T04:23:43;54.20;;;32.77;;
36585;SDS011;22591;48.314;11.562;2024-01-10T04:26:09;58.30;;;34.43;;
36585;SDS011;22591;48.314;11.562;2024-01-10T04:28:34;61.00;;;35.50;;
36585;SDS011;22591;48.314;11.562;2024-01-10T04:31:00;57.00;;;35.20;;
36585;SDS011;22591;48.314;11.562;2024-01-10T04:33:25;60.87;;;34.77;;
36585;SDS011;22591;48.314;11.562;2024-01-10T04:35:51;62.13;;;36.67;;
36585;SDS011;22591;48.314;11.562;2024-01-10T04:38:16;69.87;;;37.67;;
36585;SDS011;22591;48.314;11.562;2024-01-10T04:40:42;62.73;;;36.27;;
36585;SDS011;22591;48.314;11.562;2024-01-10T04:43:07;62.17;;;35.90;;
36585;SDS011;22591;48.314;11.562;2024-01-10T04:45:33;61.77;;;35.67;;
36585;SDS011;22591;48.314;11.562;2024-01-10T04:47:59;63.13;;;36.83;;
36585;SDS011;22591;48.314;11.562;2024-01-10T04:50:24;65.30;;;37.20;;
36585;SDS011;22591;48.314;11.562;2024-01-10T04:52:50;63.07;;;34.73;;
36585;SDS011;22591;48.314;11.562;2024-01-10T04:55:15;62.47;;;36.57;;
36585;SDS011;22591;48.314;11.562;2024-01-10T04:57:41;62.27;;;35.20;;
36585;SDS011;22591;48.314;11.562;2024-01-10T05:00:06;71.83;;;38.13;;
36585;SDS011;22591;48.314;11.562;2024-01-10T05:02:32;64.30;;;36.00;;
36585;SDS011;22591;48.314;11.562;2024-01-10T05:04:58;62.93;;;36.37;;
36585;SDS011;22591;48.314;11.562;2024-01-10T05:07:24;59.03;;;34.43;;
36585;SDS011;22591;48.314;11.562;2024-01-10T05:09:49;65.43;;;34.83;;
36585;SDS011;22591;48.314;11.562;2024-01-10T05:12:15;59.20;;;35.17;;
36585;SDS011;22591;48.314;11.562;2024-01-10T05:14:40;65.57;;;36.83;;
36585;SDS011;22591;48.314;11.562;2024-01-10T05:17:06;60.17;;;35.80;;
36585;SDS011;22591;48.314;11.562;2024-01-10T05:19:31;64.70;;;35.40;;
36585;SDS011;22591;48.314;11.562;2024-01-10T05:21:57;59.20;;;33.67;;
36585;SDS011;22591;48.314;11.562;2024-01-10T05:24:23;60.90;;;35.70;;
36585;SDS011;22591;48.314;11.562;2024-01-10T05:26:49;65.30;;;34.90;;
36585;SDS011;22591;48.314;11.562;2024-01-10T05:29:16;65.20;;;36.63;;
36585;SDS011;22591;48.314;11.562;2024-01-10T05:31:45;65.37;;;36.97;;
36585;SDS011;22591;48.314;11.562;2024-01-10T05:34:11;63.07;;;34.37;;
36585;SDS011;22591;48.314;11.562;2024-01-10T05:36:37;70.40;;;36.63;;
36585;SDS011;22591;48.314;11.562;2024-01-10T05:39:03;70.60;;;37.60;;
36585;SDS011;22591;48.314;11.562;2024-01-10T05:41:30;66.27;;;37.63;;
36585;SDS011;22591;48.314;11.562;2024-01-10T05:43:56;65.93;;;37.53;;
36585;SDS011;22591;48.314;11.562;2024-01-10T05:46:23;63.90;;;37.77;;
36585;SDS011;22591;48.314;11.562;2024-01-10T05:48:49;69.50;;;37.30;;
36585;SDS011;22591;48.314;11.562;2024-01-10T05:51:15;67.87;;;36.93;;
36585;SDS011;22591;48.314;11.562;2024-01-10T05:53:42;72.17;;;38.43;;
36585;SDS011;22591;48.314;11.562;2024-01-10T05:56:07;65.67;;;36.37;;
36585;SDS011;22591;48.314;11.562;2024-01-10T05:58:33;77.57;;;41.00;;
36585;SDS011;22591;48.314;11.562;2024-01-10T06:00:58;74.80;;;40.00;;
36585;SDS011;22591;48.314;11.562;2024-01-10T06:03:25;75.50;;;40.27;;
36585;SDS011;22591;48.314;11.562;2024-01-10T06:05:52;71.13;;;40.70;;
36585;SDS011;22591;48.314;11.562;2024-01-10T06:08:18;70.07;;;38.97;;
36585;SDS011;22591;48.314;11.562;2024-01-10T06:10:44;81.83;;;42.10;;
36585;SDS011;22591;48.314;11.562;2024-01-10T06:13:10;73.57;;;41.73;;
36585;SDS011;22591;48.314;11.562;2024-01-10T06:15:35;84.97;;;43.23;;
36585;SDS011;22591;48.314;11.562;2024-01-10T06:18:01;73.20;;;41.73;;
36585;SDS011;22591;48.314;11.562;2024-01-10T06:20:26;82.90;;;41.23;;
36585;SDS011;22591;48.314;11.562;2024-01-10T06:22:52;76.57;;;41.00;;
36585;SDS011;22591;48.314;11.562;2024-01-10T06:25:18;78.17;;;42.93;;
36585;SDS011;22591;48.314;11.562;2024-01-10T06:27:44;81.10;;;42.93;;
36585;SDS011;22591;48.314;11.562;2024-01-10T06:30:09;80.30;;;43.83;;
36585;SDS011;22591;48.314;11.562;2024-01-10T06:32:35;76.43;;;40.53;;
36585;SDS011;22591;48.314;11.562;2024-01-10T06:35:01;72.37;;;38.33;;
36585;SDS011;22591;48.314;11.562;2024-01-10T06:37:27;74.07;;;37.53;;
36585;SDS011;22591;48.314;11.562;2024-01-10T06:39:53;70.97;;;38.30;;
36585;SDS011;22591;48.314;11.562;2024-01-10T06:42:19;77.03;;;40.53;;
36585;SDS011;22591;48.314;11.562;2024-01-10T06:44:45;81.30;;;41.13;;
36585;SDS011;22591;48.314;11.562;2024-01-10T06:47:11;75.63;;;38.07;;
36585;SDS011;22591;48.314;11.562;2024-01-10T06:49:36;76.33;;;39.30;;
36585;SDS011;22591;48.314;11.562;2024-01-10T06:52:02;74.53;;;39.27;;
36585;SDS011;22591;48.314;11.562;2024-01-10T06:54:27;73.40;;;39.03;;
36585;SDS011;22591;48.314;11.562;2024-01-10T06:56:53;74.60;;;41.27;;
36585;SDS011;22591;48.314;11.562;2024-01-10T06:59:18;83.13;;;40.77;;
36585;SDS011;22591;48.314;11.562;2024-01-10T07:01:45;79.07;;;39.93;;
36585;SDS011;22591;48.314;11.562;2024-01-10T07:04:10;77.33;;;40.33;;
36585;SDS011;22591;48.314;11.562;2024-01-10T07:06:36;79.17;;;39.03;;
36585;SDS011;22591;48.314;11.562;2024-01-10T07:09:01;73.60;;;38.27;;
36585;SDS011;22591;48.314;11.562;2024-01-10T07:11:28;76.03;;;40.83;;
36585;SDS011;22591;48.314;11.562;2024-01-10T07:13:54;77.13;;;39.00;;
36585;SDS011;22591;48.314;11.562;2024-01-10T07:16:20;72.90;;;36.27;;
36585;SDS011;22591;48.314;11.562;2024-01-10T07:18:45;80.47;;;39.20;;
36585;SDS011;22591;48.314;11.562;2024-01-10T07:21:12;84.57;;;40.00;;
36585;SDS011;22591;48.314;11.562;2024-01-10T07:23:37;88.10;;;41.30;;
36585;SDS011;22591;48.314;11.562;2024-01-10T07:26:05;77.97;;;39.17;;
36585;SDS011;22591;48.314;11.562;2024-01-10T07:28:31;76.00;;;38.30;;
36585;SDS011;22591;48.314;11.562;2024-01-10T07:30:57;88.60;;;41.67;;
36585;SDS011;22591;48.314;11.562;2024-01-10T07:33:23;84.27;;;40.60;;
36585;SDS011;22591;48.314;11.562;2024-01-10T07:35:49;75.13;;;38.20;;
36585;SDS011;22591;48.314;11.562;2024-01-10T07:38:14;84.87;;;41.80;;
36585;SDS011;22591;48.314;11.562;2024-01-10T07:40:40;79.53;;;36.40;;
36585;SDS011;22591;48.314;11.562;2024-01-10T07:43:05;95.40;;;42.40;;
36585;SDS011;22591;48.314;11.562;2024-01-10T07:45:31;79.70;;;39.73;;
36585;SDS011;22591;48.314;11.562;2024-01-10T07:47:58;83.60;;;39.53;;
36585;SDS011;22591;48.314;11.562;2024-01-10T07:50:24;81.73;;;40.40;;
36585;SDS011;22591;48.314;11.562;2024-01-10T07:52:52;76.57;;;37.50;;
36585;SDS011;22591;48.314;11.562;2024-01-10T07:55:17;73.00;;;38.10;;
36585;SDS011;22591;48.314;11.562;2024-01-10T07:57:43;82.50;;;39.60;;
36585;SDS011;22591;48.314;11.562;2024-01-10T08:00:09;74.43;;;37.03;;
36585;SDS011;22591;48.314;11.562;2024-01-10T08:02:35;79.27;;;39.03;;
36585;SDS011;22591;48.314;11.562;2024-01-10T08:05:02;73.40;;;35.03;;
36585;SDS011;22591;48.314;11.562;2024-01-10T08:07:33;77.17;;;34.63;;
36585;SDS011;22591;48.314;11.562;2024-01-10T08:09:59;67.70;;;34.10;;
36585;SDS011;22591;48.314;11.562;2024-01-10T08:12:25;72.93;;;35.40;;
36585;SDS011;22591;48.314;11.562;2024-01-10T08:14:51;75.37;;;36.33;;
36585;SDS011;22591;48.314;11.562;2024-01-10T08:17:16;66.60;;;35.27;;
36585;SDS011;22591;48.314;11.562;2024-01-10T08:19:42;70.07;;;35.03;;
36585;SDS011;22591;48.314;11.562;2024-01-10T08:22:07;68.50;;;32.40;;
36585;SDS011;22591;48.314;11.562;2024-01-10T08:24:33;64.80;;;35.33;;
36585;SDS011;22591;48.314;11.562;2024-01-10T08:26:59;65.93;;;33.73;;
36585;SDS011;22591;48.314;11.562;2024-01-10T08:29:24;65.73;;;33.47;;
36585;SDS011;22591;48.314;11.562;2024-01-10T08:31:55;69.07;;;32.78;;
36585;SDS011;22591;48.314;11.562;2024-01-10T08:34:21;68.67;;;34.50;;
36585;SDS011;22591;48.314;11.562;2024-01-10T08:36:47;62.90;;;32.43;;
36585;SDS011;22591;48.314;11.562;2024-01-10T08:39:15;63.43;;;31.80;;
36585;SDS011;22591;48.314;11.562;2024-01-10T08:41:41;66.67;;;32.97;;
36585;SDS011;22591;48.314;11.562;2024-01-10T08:44:09;61.93;;;32.63;;
36585;SDS011;22591;48.314;11.562;2024-01-10T08:46:37;69.20;;;33.90;;
36585;SDS011;22591;48.314;11.562;2024-01-10T08:49:03;66.17;;;32.43;;
36585;SDS011;22591;48.314;11.562;2024-01-10T08:51:29;63.93;;;32.10;;
36585;SDS011;22591;48.314;11.562;2024-01-10T08:53:55;64.57;;;32.57;;
36585;SDS011;22591;48.314;11.562;2024-01-10T08:56:21;63.70;;;33.00;;
36585;SDS011;22591;48.314;11.562;2024-01-10T08:58:47;62.87;;;31.53;;
36585;SDS011;22591;48.314;11.562;2024-01-10T09:01:13;68.83;;;33.10;;
36585;SDS011;22591;48.314;11.562;2024-01-10T09:03:38;64.13;;;32.07;;
36585;SDS011;22591;48.314;11.562;2024-01-10T09:06:04;60.57;;;30.53;;
36585;SDS011;22591;48.314;11.562;2024-01-10T09:08:32;63.43;;;30.27;;
36585;SDS011;22591;48.314;11.562;2024-01-10T09:10:58;70.13;;;34.03;;
36585;SDS011;22591;48.314;11.562;2024-01-10T09:13:24;67.70;;;30.23;;
36585;SDS011;22591;48.314;11.562;2024-01-10T09:15:49;69.47;;;31.67;;
36585;SDS011;22591;48.314;11.562;2024-01-10T09:18:15;58.53;;;29.20;;
36585;SDS011;22591;48.314;11.562;2024-01-10T09:20:41;73.03;;;32.93;;
36585;SDS011;22591;48.314;11.562;2024-01-10T09:23:07;64.30;;;33.57;;
36585;SDS011;22591;48.314;11.562;2024-01-10T09:25:32;67.60;;;32.23;;
36585;SDS011;22591;48.314;11.562;2024-01-10T09:27:58;75.90;;;34.10;;
36585;SDS011;22591;48.314;11.562;2024-01-10T09:30:24;68.27;;;33.80;;
36585;SDS011;22591;48.314;11.562;2024-01-10T09:32:49;59.47;;;31.67;;
36585;SDS011;22591;48.314;11.562;2024-01-10T09:35:15;63.40;;;31.03;;
36585;SDS011;22591;48.314;11.562;2024-01-10T09:37:40;56.90;;;29.03;;
36585;SDS011;22591;48.314;11.562;2024-01-10T09:40:06;56.80;;;29.10;;
36585;SDS011;22591;48.314;11.562;2024-01-10T09:42:33;58.87;;;31.10;;
36585;SDS011;22591;48.314;11.562;2024-01-10T09:45:00;45.83;;;25.60;;
36585;SDS011;22591;48.314;11.562;2024-01-10T09:47:28;46.07;;;27.03;;
36585;SDS011;22591;48.314;11.562;2024-01-10T09:49:56;63.57;;;31.47;;
36585;SDS011;22591;48.314;11.562;2024-01-10T09:52:27;65.00;;;32.00;;
36585;SDS011;22591;48.314;11.562;2024-01-10T09:54:53;64.20;;;32.27;;
36585;SDS011;22591;48.314;11.562;2024-01-10T09:57:23;61.72;;;32.10;;
36585;SDS011;22591;48.314;11.562;2024-01-10T09:59:50;59.13;;;31.90;;
36585;SDS011;22591;48.314;11.562;2024-01-10T10:02:16;65.67;;;32.53;;
36585;SDS011;22591;48.314;11.562;2024-01-10T10:04:50;62.33;;;32.20;;
36585;SDS011;22591;48.314;11.562;2024-01-10T10:07:21;56.50;;;31.03;;
36585;SDS011;22591;48.314;11.562;2024-01-10T10:09:47;56.83;;;30.10;;
36585;SDS011;22591;48.314;11.562;2024-01-10T10:12:12;58.13;;;31.17;;
36585;SDS011;22591;48.314;11.562;2024-01-10T10:14:38;56.53;;;31.83;;
36585;SDS011;22591;48.314;11.562;2024-01-10T10:17:13;67.47;;;31.90;;
36585;SDS011;22591;48.314;11.562;2024-01-10T10:19:40;60.43;;;32.60;;
36585;SDS011;22591;48.314;11.562;2024-01-10T10:22:08;60.50;;;31.60;;
36585;SDS011;22591;48.314;11.562;2024-01-10T10:24:34;50.57;;;28.77;;
36585;SDS011;22591;48.314;11.562;2024-01-10T10:27:00;56.87;;;32.03;;
36585;SDS011;22591;48.314;11.562;2024-01-10T10:29:25;68.33;;;33.40;;
36585;SDS011;22591;48.314;11.562;2024-01-10T10:31:51;56.87;;;31.43;;
36585;SDS011;22591;48.314;11.562;2024-01-10T10:34:23;64.33;;;33.33;;
36585;SDS011;22591;48.314;11.562;2024-01-10T10:36:48;58.10;;;31.87;;
36585;SDS011;22591;48.314;11.562;2024-01-10T10:39:17;63.53;;;31.80;;
36585;SDS011;22591;48.314;11.562;2024-01-10T10:41:43;63.30;;;32.50;;
36585;SDS011;22591;48.314;11.562;2024-01-10T10:44:10;61.80;;;33.07;;
36585;SDS011;22591;48.314;11.562;2024-01-10T10:46:39;63.27;;;33.00;;
36585;SDS011;22591;48.314;11.562;2024-01-10T10:49:06;63.13;;;33.73;;
36585;SDS011;22591;48.314;11.562;2024-01-10T10:51:36;66.20;;;34.35;;
36585;SDS011;22591;48.314;11.562;2024-01-10T10:54:03;56.13;;;30.77;;
36585;SDS011;22591;48.314;11.562;2024-01-10T10:56:30;53.17;;;29.50;;
36585;SDS011;22591;48.314;11.562;2024-01-10T10:59:00;66.47;;;34.93;;
36585;SDS011;22591;48.314;11.562;2024-01-10T11:01:26;65.47;;;33.63;;
36585;SDS011;22591;48.314;11.562;2024-01-10T11:03:52;53.60;;;30.50;;
36585;SDS011;22591;48.314;11.562;2024-01-10T11:06:19;62.43;;;32.77;;
36585;SDS011;22591;48.314;11.562;2024-01-10T11:08:49;56.80;;;31.67;;
36585;SDS011;22591;48.314;11.562;2024-01-10T11:11:22;70.07;;;34.30;;
36585;SDS011;22591;48.314;11.562;2024-01-10T11:14:18;57.93;;;32.20;;
36585;SDS011;22591;48.314;11.562;2024-01-10T11:17:14;65.00;;;35.07;;
36585;SDS011;22591;48.314;11.562;2024-01-10T11:25:15;59.90;;;32.50;;
36585;SDS011;22591;48.314;11.562;2024-01-10T11:27:42;60.57;;;32.00;;
36585;SDS011;22591;48.314;11.562;2024-01-10T11:30:08;60.30;;;30.37;;
36585;SDS011;22591;48.314;11.562;2024-01-10T11:32:36;67.63;;;34.97;;
36585;SDS011;22591;48.314;11.562;2024-01-10T11:35:10;69.00;;;34.37;;
36585;SDS011;22591;48.314;11.562;2024-01-10T11:40:10;63.43;;;31.73;;
36585;SDS011;22591;48.314;11.562;2024-01-10T11:42:45;63.67;;;31.67;;
36585;SDS011;22591;48.314;11.562;2024-01-10T11:47:59;61.60;;;31.50;;
36585;SDS011;22591;48.314;11.562;2024-01-10T11:50:24;62.93;;;32.33;;
36585;SDS011;22591;48.314;11.562;2024-01-10T11:52:54;67.27;;;34.50;;
36585;SDS011;22591;48.314;11.562;2024-01-10T11:58:19;61.10;;;33.43;;
36585;SDS011;22591;48.314;11.562;2024-01-10T12:00:48;70.00;;;36.27;;
36585;SDS011;22591;48.314;11.562;2024-01-10T12:03:14;64.47;;;34.33;;
36585;SDS011;22591;48.314;11.562;2024-01-10T12:05:39;61.93;;;34.83;;
36585;SDS011;22591;48.314;11.562;2024-01-10T12:08:07;66.57;;;36.17;;
36585;SDS011;22591;48.314;11.562;2024-01-10T12:10:33;62.23;;;33.70;;
36585;SDS011;22591;48.314;11.562;2024-01-10T12:13:01;56.27;;;32.43;;
36585;SDS011;22591;48.314;11.562;2024-01-10T12:15:28;62.67;;;33.33;;
36585;SDS011;22591;48.314;11.562;2024-01-10T12:17:54;65.47;;;34.73;;
36585;SDS011;22591;48.314;11.562;2024-01-10T12:20:20;71.03;;;37.13;;
36585;SDS011;22591;48.314;11.562;2024-01-10T12:22:45;65.77;;;35.00;;
36585;SDS011;22591;48.314;11.562;2024-01-10T12:25:11;62.57;;;35.27;;
36585;SDS011;22591;48.314;11.562;2024-01-10T12:27:37;76.37;;;36.27;;
36585;SDS011;22591;48.314;11.562;2024-01-10T12:30:02;73.17;;;37.23;;
36585;SDS011;22591;48.314;11.562;2024-01-10T12:32:29;66.17;;;35.90;;
36585;SDS011;22591;48.314;11.562;2024-01-10T12:35:00;67.93;;;35.30;;
36585;SDS011;22591;48.314;11.562;2024-01-10T12:37:27;63.90;;;33.90;;
36585;SDS011;22591;48.314;11.562;2024-01-10T12:39:52;65.17;;;35.90;;
36585;SDS011;22591;48.314;11.562;2024-01-10T12:42:18;65.73;;;35.57;;
36585;SDS011;22591;48.314;11.562;2024-01-10T12:44:45;70.30;;;36.60;;
36585;SDS011;22591;48.314;11.562;2024-01-10T12:47:18;71.73;;;38.57;;
36585;SDS011;22591;48.314;11.562;2024-01-10T12:49:45;78.93;;;40.13;;
36585;SDS011;22591;48.314;11.562;2024-01-10T12:52:11;87.63;;;41.37;;
36585;SDS011;22591;48.314;11.562;2024-01-10T12:54:38;77.77;;;39.80;;
36585;SDS011;22591;48.314;11.562;2024-01-10T12:57:04;82.90;;;41.57;;
36585;SDS011;22591;48.314;11.562;2024-01-10T12:59:29;89.83;;;41.57;;
36585;SDS011;22591;48.314;11.562;2024-01-10T13:01:55;86.70;;;42.00;;
36585;SDS011;22591;48.314;11.562;2024-01-10T13:04:22;85.30;;;42.10;;
36585;SDS011;22591;48.314;11.562;2024-01-10T13:06:47;84.03;;;39.67;;
36585;SDS011;22591;48.314;11.562;2024-01-10T13:09:13;76.30;;;39.23;;
36585;SDS011;22591;48.314;11.562;2024-01-10T13:11:38;69.63;;;37.67;;
36585;SDS011;22591;48.314;11.562;2024-01-10T13:14:04;66.60;;;35.63;;
36585;SDS011;22591;48.314;11.562;2024-01-10T13:16:30;75.13;;;39.83;;
36585;SDS011;22591;48.314;11.562;2024-01-10T13:18:55;66.97;;;36.27;;
36585;SDS011;22591;48.314;11.562;2024-01-10T13:21:22;78.20;;;38.23;;
36585;SDS011;22591;48.314;11.562;2024-01-10T13:23:48;80.40;;;38.50;;
36585;SDS011;22591;48.314;11.562;2024-01-10T13:26:13;79.87;;;40.70;;
36585;SDS011;22591;48.314;11.562;2024-01-10T13:28:39;83.63;;;42.63;;
36585;SDS011;22591;48.314;11.562;2024-01-10T13:31:05;75.55;;;41.28;;
36585;SDS011;22591;48.314;11.562;2024-01-10T13:33:31;96.17;;;44.43;;
36585;SDS011;22591;48.314;11.562;2024-01-10T13:35:56;85.60;;;42.40;;
36585;SDS011;22591;48.314;11.562;2024-01-10T13:38:22;80.93;;;42.50;;
36585;SDS011;22591;48.314;11.562;2024-01-10T13:40:49;79.28;;;40.67;;
36585;SDS011;22591;48.314;11.562;2024-01-10T13:43:15;86.43;;;42.73;;
36585;SDS011;22591;48.314;11.562;2024-01-10T13:45:40;86.40;;;44.13;;
36585;SDS011;22591;48.314;11.562;2024-01-10T13:48:06;86.47;;;42.53;;
36585;SDS011;22591;48.314;11.562;2024-01-10T13:50:32;79.67;;;41.40;;
36585;SDS011;22591;48.314;11.562;2024-01-10T13:52:58;84.20;;;42.93;;
36585;SDS011;22591;48.314;11.562;2024-01-10T13:55:23;81.37;;;41.37;;
36585;SDS011;22591;48.314;11.562;2024-01-10T13:57:49;83.97;;;41.63;;
36585;SDS011;22591;48.314;11.562;2024-01-10T14:00:15;103.47;;;48.07;;
36585;SDS011;22591;48.314;11.562;2024-01-10T14:02:41;98.20;;;47.73;;
36585;SDS011;22591;48.314;11.562;2024-01-10T14:05:07;90.17;;;45.57;;
36585;SDS011;22591;48.314;11.562;2024-01-10T14:07:34;92.53;;;47.10;;
36585;SDS011;22591;48.314;11.562;2024-01-10T14:10:00;88.20;;;46.67;;
36585;SDS011;22591;48.314;11.562;2024-01-10T14:12:27;99.67;;;47.23;;
36585;SDS011;22591;48.314;11.562;2024-01-10T14:14:54;90.17;;;42.67;;
36585;SDS011;22591;48.314;11.562;2024-01-10T14:17:20;92.27;;;45.93;;